Terminal Aerodrome Forecast
Issued by NWS Newport/Morehead City, NC

Home | Current Version | Previous Version | Graphics & Text | Print | Product List | Glossary On
Versions: 1 2 3 4 5 6 7 8 9 10 11 12 13 14 15 16 17
433
FTUS42 KMHX 141735
TAFEWN
TAF
KEWN 141735Z 1418/1518 01007KT P6SM BKN020
      TEMPO 1418/1420 SCT020 OVC035
     FM150200 VRB03KT P6SM SCT008 BKN015=

USA.gov is the U.S. government's official web portal to all federal, state and local government web resources and services.